createdAt,value
2022-10-06T00:00:28.496Z,16.30
2022-10-06T00:01:28.486Z,15.70
2022-10-06T00:02:28.448Z,15.50
2022-10-06T00:03:28.298Z,25.20
2022-10-06T00:04:28.229Z,20.30
2022-10-06T00:05:28.159Z,45.30
2022-10-06T00:06:28.099Z,28.00
2022-10-06T00:07:28.026Z,17.90
2022-10-06T00:08:28.151Z,20.30
2022-10-06T00:09:27.900Z,20.20
2022-10-06T00:10:27.831Z,19.60
2022-10-06T00:11:27.770Z,16.10
2022-10-06T00:12:27.693Z,20.90
2022-10-06T00:13:27.631Z,21.90
2022-10-06T00:14:27.561Z,18.50
2022-10-06T00:15:27.546Z,44.70
2022-10-06T00:16:27.424Z,38.20
2022-10-06T00:17:27.339Z,32.10
2022-10-06T00:18:27.712Z,46.40
2022-10-06T00:19:27.212Z,21.20
2022-10-06T00:20:27.143Z,18.30
2022-10-06T00:21:27.072Z,17.00
2022-10-06T00:22:27.003Z,20.30
2022-10-06T00:23:26.933Z,21.10
2022-10-06T00:24:26.883Z,27.90
2022-10-06T00:25:26.803Z,26.50
2022-10-06T00:26:26.724Z,37.40
2022-10-06T00:27:26.663Z,29.10
2022-10-06T00:28:27.421Z,25.30
2022-10-06T00:29:26.552Z,22.10
2022-10-06T00:30:26.466Z,20.60
2022-10-06T00:31:26.468Z,34.30
2022-10-06T00:32:26.326Z,20.00
2022-10-06T00:33:26.254Z,31.10
2022-10-06T00:34:26.196Z,23.40
2022-10-06T00:35:26.111Z,28.60
2022-10-06T00:36:26.046Z,28.00
2022-10-06T00:37:25.967Z,64.00
2022-10-06T00:38:26.379Z,45.80
2022-10-06T00:39:25.838Z,34.20
2022-10-06T00:40:25.785Z,42.50
2022-10-06T00:41:25.697Z,31.40
2022-10-06T00:42:25.638Z,26.60
2022-10-06T00:43:25.566Z,30.30
2022-10-06T00:44:25.508Z,27.50
2022-10-06T00:45:25.447Z,24.50
2022-10-06T00:46:25.419Z,25.90
2022-10-06T00:47:25.279Z,26.20
2022-10-06T00:48:25.492Z,29.80
2022-10-06T00:49:25.139Z,26.20
2022-10-06T00:50:25.087Z,25.90
2022-10-06T00:51:24.991Z,32.50
2022-10-06T00:52:24.920Z,37.10
2022-10-06T00:53:24.841Z,22.70
2022-10-06T00:54:24.770Z,26.70
2022-10-06T00:55:24.700Z,50.30
2022-10-06T00:56:24.631Z,33.90
2022-10-06T00:57:24.562Z,29.90
2022-10-06T00:58:24.723Z,35.70
2022-10-06T00:59:24.402Z,33.70
2022-10-06T01:00:24.349Z,44.30
2022-10-06T01:01:24.337Z,29.60
2022-10-06T01:02:24.243Z,34.90
2022-10-06T01:03:24.125Z,25.00
2022-10-06T01:04:24.045Z,24.60
2022-10-06T01:05:23.995Z,29.30
2022-10-06T01:06:23.914Z,25.90
2022-10-06T01:07:23.825Z,20.50
2022-10-06T01:08:23.763Z,27.40
2022-10-06T01:09:23.676Z,25.20
2022-10-06T01:10:23.626Z,31.30
2022-10-06T01:11:23.534Z,33.10
2022-10-06T01:12:23.441Z,27.00
2022-10-06T01:13:23.370Z,22.60
2022-10-06T01:14:23.292Z,33.40
2022-10-06T01:15:23.243Z,36.50
2022-10-06T01:16:23.339Z,26.60
2022-10-06T01:17:23.092Z,21.20
2022-10-06T01:18:23.021Z,19.90
2022-10-06T01:19:22.953Z,21.00
2022-10-06T01:20:22.882Z,16.40
2022-10-06T01:21:22.831Z,21.50
2022-10-06T01:22:22.744Z,17.10
2022-10-06T01:23:22.675Z,20.50
2022-10-06T01:24:22.605Z,19.40
2022-10-06T01:25:22.535Z,18.40
2022-10-06T01:26:22.465Z,18.80
2022-10-06T01:27:22.603Z,16.70
2022-10-06T01:28:22.368Z,21.50
2022-10-06T01:29:22.257Z,23.00
2022-10-06T01:30:22.177Z,28.30
2022-10-06T01:31:22.161Z,23.50
2022-10-06T01:32:22.037Z,22.90
2022-10-06T01:33:21.969Z,30.80
2022-10-06T01:34:21.895Z,27.80
2022-10-06T01:35:21.828Z,32.00
2022-10-06T01:36:21.767Z,24.80
2022-10-06T01:37:21.700Z,24.70
2022-10-06T01:38:21.617Z,24.00
2022-10-06T01:39:21.560Z,23.20
2022-10-06T01:40:21.476Z,24.30
2022-10-06T01:41:21.429Z,20.30
2022-10-06T01:42:21.330Z,29.30
2022-10-06T01:43:21.267Z,41.10
2022-10-06T01:44:21.181Z,24.30
2022-10-06T01:45:21.110Z,22.50
2022-10-06T01:46:21.103Z,16.70
2022-10-06T01:47:20.981Z,16.30
2022-10-06T01:48:20.890Z,16.40
2022-10-06T01:49:20.819Z,19.90
2022-10-06T01:50:20.740Z,21.30
2022-10-06T01:51:20.678Z,28.10
2022-10-06T01:52:20.612Z,18.40
2022-10-06T01:53:20.532Z,19.00
2022-10-06T01:54:20.461Z,20.50
2022-10-06T01:55:20.392Z,20.10
2022-10-06T01:56:20.322Z,23.40
2022-10-06T01:57:20.273Z,22.20
2022-10-06T01:58:20.194Z,23.20
2022-10-06T01:59:20.122Z,15.90
2022-10-06T02:00:20.042Z,16.30
2022-10-06T02:01:20.018Z,26.50
2022-10-06T02:02:19.894Z,22.60
2022-10-06T02:03:19.845Z,16.30
2022-10-06T02:04:19.829Z,15.90
2022-10-06T02:05:19.694Z,28.50
2022-10-06T02:06:19.693Z,17.80
2022-10-06T02:07:19.555Z,20.10
2022-10-06T02:08:19.517Z,20.90
2022-10-06T02:09:19.416Z,19.40
2022-10-06T02:10:19.345Z,17.20
2022-10-06T02:11:19.267Z,17.90
2022-10-06T02:12:19.196Z,17.40
2022-10-06T02:13:19.138Z,17.10
2022-10-06T02:14:19.047Z,24.90
2022-10-06T02:15:18.988Z,18.30
2022-10-06T02:16:18.971Z,20.10
2022-10-06T02:17:18.849Z,18.30
2022-10-06T02:18:18.793Z,18.70
2022-10-06T02:19:18.708Z,17.20
2022-10-06T02:20:18.639Z,18.50
2022-10-06T02:21:18.577Z,21.00
2022-10-06T02:22:18.499Z,20.50
2022-10-06T02:23:18.447Z,17.80
2022-10-06T02:24:18.379Z,27.30
2022-10-06T02:25:18.300Z,27.50
2022-10-06T02:26:18.230Z,30.90
2022-10-06T02:27:18.162Z,32.80
2022-10-06T02:28:18.158Z,27.10
2022-10-06T02:29:18.044Z,21.80
2022-10-06T02:30:17.959Z,28.70
2022-10-06T02:31:17.967Z,31.70
2022-10-06T02:32:17.823Z,25.50
2022-10-06T02:33:17.732Z,22.50
2022-10-06T02:34:17.671Z,19.70
2022-10-06T02:35:17.583Z,25.90
2022-10-06T02:36:17.525Z,24.20
2022-10-06T02:37:17.449Z,20.50
2022-10-06T02:38:17.374Z,19.90
2022-10-06T02:39:17.321Z,21.80
2022-10-06T02:40:17.236Z,22.50
2022-10-06T02:41:17.166Z,19.90
2022-10-06T02:42:17.104Z,18.20
2022-10-06T02:43:17.024Z,15.00
2022-10-06T02:44:16.985Z,19.40
2022-10-06T02:45:16.885Z,19.70
2022-10-06T02:46:16.907Z,20.90
2022-10-06T02:47:16.745Z,17.70
2022-10-06T02:48:16.682Z,14.50
2022-10-06T02:49:16.606Z,11.70
2022-10-06T02:50:16.546Z,15.50
2022-10-06T02:51:16.456Z,21.00
2022-10-06T02:52:16.396Z,27.00
2022-10-06T02:53:16.325Z,24.40
2022-10-06T02:54:16.260Z,30.80
2022-10-06T02:55:16.206Z,29.30
2022-10-06T02:56:16.230Z,21.80
2022-10-06T02:57:16.069Z,19.00
2022-10-06T02:58:16.002Z,15.20
2022-10-06T02:59:15.928Z,18.30
2022-10-06T03:00:15.878Z,15.60
2022-10-06T03:01:15.953Z,12.80
2022-10-06T03:02:15.790Z,15.00
2022-10-06T03:03:15.669Z,14.90
2022-10-06T03:04:15.598Z,19.00
2022-10-06T03:05:15.530Z,18.10
2022-10-06T03:06:15.462Z,14.60
2022-10-06T03:07:15.389Z,16.10
2022-10-06T03:08:15.321Z,18.70
2022-10-06T03:09:15.251Z,15.40
2022-10-06T03:10:15.211Z,15.20
2022-10-06T03:11:15.122Z,16.60
2022-10-06T03:12:15.059Z,14.50
2022-10-06T03:13:14.981Z,18.00
2022-10-06T03:14:19.125Z,15.70
2022-10-06T03:15:15.862Z,15.60
2022-10-06T03:16:14.909Z,21.90
2022-10-06T03:17:14.712Z,19.60
2022-10-06T03:18:14.649Z,16.30
2022-10-06T03:19:14.577Z,14.40
2022-10-06T03:20:14.514Z,14.70
2022-10-06T03:21:14.464Z,17.80
2022-10-06T03:22:14.385Z,20.30
2022-10-06T03:23:14.314Z,16.10
2022-10-06T03:24:14.256Z,15.80
2022-10-06T03:25:14.189Z,17.30
2022-10-06T03:26:14.135Z,22.00
2022-10-06T03:27:14.055Z,23.40
2022-10-06T03:28:14.050Z,22.60
2022-10-06T03:29:13.917Z,20.50
2022-10-06T03:30:13.855Z,15.90
2022-10-06T03:31:13.817Z,18.50
2022-10-06T03:32:13.743Z,18.50
2022-10-06T03:33:13.648Z,17.40
2022-10-06T03:34:13.583Z,21.60
2022-10-06T03:35:13.487Z,23.90
2022-10-06T03:36:13.436Z,18.90
2022-10-06T03:37:13.339Z,16.50
2022-10-06T03:38:13.274Z,18.30
2022-10-06T03:39:13.198Z,18.80
2022-10-06T03:40:13.129Z,18.20
2022-10-06T03:41:13.048Z,25.50
2022-10-06T03:42:13.002Z,26.40
2022-10-06T03:43:12.909Z,21.30
2022-10-06T03:44:12.841Z,17.30
2022-10-06T03:45:12.766Z,19.00
2022-10-06T03:46:12.773Z,21.70
2022-10-06T03:47:17.060Z,31.70
2022-10-06T03:48:13.547Z,29.50
2022-10-06T03:49:12.461Z,27.20
2022-10-06T03:50:12.392Z,28.20
2022-10-06T03:51:12.312Z,28.10
2022-10-06T03:52:12.252Z,19.60
2022-10-06T03:53:12.161Z,19.20
2022-10-06T03:54:12.091Z,29.20
2022-10-06T03:55:12.022Z,25.70
2022-10-06T03:56:11.955Z,26.40
2022-10-06T03:57:11.882Z,26.80
2022-10-06T03:58:11.802Z,27.50
2022-10-06T03:59:11.730Z,22.30
2022-10-06T04:00:11.654Z,21.30
2022-10-06T04:01:11.624Z,21.50
2022-10-06T04:02:11.579Z,20.00
2022-10-06T04:03:11.434Z,20.00
2022-10-06T04:04:11.371Z,17.30
2022-10-06T04:05:11.294Z,16.90
2022-10-06T04:06:11.225Z,19.20
2022-10-06T04:07:11.150Z,15.20
2022-10-06T04:08:11.086Z,18.90
2022-10-06T04:09:14.970Z,19.40
2022-10-06T04:10:10.926Z,19.30
2022-10-06T04:11:10.837Z,21.90
2022-10-06T04:12:10.767Z,18.80
2022-10-06T04:13:10.698Z,17.80
2022-10-06T04:14:10.614Z,18.40
2022-10-06T04:15:10.535Z,27.00
2022-10-06T04:16:10.507Z,23.10
2022-10-06T04:17:10.377Z,35.70
2022-10-06T04:18:10.317Z,32.50
2022-10-06T04:19:10.229Z,31.90
2022-10-06T04:20:10.160Z,32.40
2022-10-06T04:21:10.078Z,31.10
2022-10-06T04:22:10.008Z,30.90
2022-10-06T04:23:09.949Z,32.80
2022-10-06T04:24:09.849Z,33.50
2022-10-06T04:25:09.767Z,29.20
2022-10-06T04:26:09.691Z,29.70
2022-10-06T04:27:09.622Z,31.40
2022-10-06T04:28:09.575Z,33.30
2022-10-06T04:29:09.480Z,38.40
2022-10-06T04:30:09.402Z,36.30
2022-10-06T04:31:09.382Z,36.70
2022-10-06T04:32:09.251Z,38.50
2022-10-06T04:33:09.166Z,30.20
2022-10-06T04:34:09.112Z,29.00
2022-10-06T04:35:09.035Z,34.10
2022-10-06T04:36:08.983Z,34.80
2022-10-06T04:37:08.862Z,33.80
2022-10-06T04:38:08.793Z,35.80
2022-10-06T04:39:08.726Z,41.80
2022-10-06T04:40:08.635Z,43.00
2022-10-06T04:41:08.551Z,35.70
2022-10-06T04:42:08.475Z,40.50
2022-10-06T04:43:08.386Z,36.80
2022-10-06T04:44:08.315Z,36.70
2022-10-06T04:45:08.215Z,42.70
2022-10-06T04:46:30.316Z,36.70
2022-10-06T04:47:09.056Z,29.40
2022-10-06T04:48:10.117Z,29.40
2022-10-06T04:49:07.887Z,36.50
2022-10-06T04:50:07.825Z,28.70
2022-10-06T04:51:07.726Z,44.10
2022-10-06T04:52:07.643Z,42.50
2022-10-06T04:53:07.556Z,35.40
2022-10-06T04:54:07.467Z,41.10
2022-10-06T04:55:07.377Z,46.90
2022-10-06T04:56:07.296Z,39.70
2022-10-06T04:57:07.199Z,37.80
2022-10-06T04:58:07.117Z,36.40
2022-10-06T04:59:07.027Z,36.20
2022-10-06T05:00:11.141Z,30.60
2022-10-06T05:01:07.879Z,33.80
2022-10-06T05:02:06.796Z,36.40
2022-10-06T05:03:06.678Z,42.30
2022-10-06T05:04:06.600Z,36.30
2022-10-06T05:05:06.511Z,36.80
2022-10-06T05:06:06.450Z,28.90
2022-10-06T05:07:06.351Z,27.70
2022-10-06T05:08:06.273Z,31.20
2022-10-06T05:09:06.182Z,35.50
2022-10-06T05:10:06.110Z,36.50
2022-10-06T05:11:06.012Z,34.70
2022-10-06T05:12:05.922Z,37.20
2022-10-06T05:13:05.825Z,35.00
2022-10-06T05:14:05.742Z,41.00
2022-10-06T05:15:05.692Z,38.90
2022-10-06T05:16:05.618Z,38.20
2022-10-06T05:17:05.472Z,39.60
2022-10-06T05:18:05.383Z,35.70
2022-10-06T05:19:05.294Z,34.70
2022-10-06T05:20:05.204Z,38.50
2022-10-06T05:21:06.768Z,41.10
2022-10-06T05:22:05.023Z,31.80
2022-10-06T05:23:04.923Z,34.00
2022-10-06T05:24:04.835Z,29.40
2022-10-06T05:25:04.744Z,30.60
2022-10-06T05:26:04.676Z,33.40
2022-10-06T05:27:04.567Z,31.70
2022-10-06T05:28:04.511Z,34.00
2022-10-06T05:29:04.397Z,33.20
2022-10-06T05:30:04.319Z,41.60
2022-10-06T05:31:04.237Z,35.60
2022-10-06T05:32:04.195Z,34.40
2022-10-06T05:33:04.057Z,35.30
2022-10-06T05:34:03.979Z,31.60
2022-10-06T05:35:03.878Z,31.30
2022-10-06T05:36:03.816Z,27.30
2022-10-06T05:37:03.701Z,31.60
2022-10-06T05:38:03.609Z,30.90
2022-10-06T05:39:03.526Z,31.00
2022-10-06T05:40:03.439Z,31.70
2022-10-06T05:41:03.360Z,31.80
2022-10-06T05:42:03.266Z,25.70
2022-10-06T05:43:03.167Z,26.00
2022-10-06T05:44:03.071Z,23.90
2022-10-06T05:45:02.974Z,22.70
2022-10-06T05:46:02.932Z,27.20
2022-10-06T05:47:02.801Z,21.50
2022-10-06T05:48:02.711Z,17.20
2022-10-06T05:49:02.622Z,22.00
2022-10-06T05:50:02.533Z,20.30
2022-10-06T05:51:02.442Z,22.30
2022-10-06T05:52:02.349Z,23.70
2022-10-06T05:53:02.254Z,22.80
2022-10-06T05:54:02.172Z,22.20
2022-10-06T05:55:02.077Z,22.80
2022-10-06T05:56:01.993Z,25.50
2022-10-06T05:57:01.884Z,21.70
2022-10-06T05:58:01.795Z,19.40
2022-10-06T05:59:01.704Z,21.70
2022-10-06T06:00:01.623Z,21.90
2022-10-06T06:01:01.538Z,20.80
2022-10-06T06:02:01.519Z,17.40
2022-10-06T06:03:01.371Z,19.70
2022-10-06T06:04:01.246Z,19.40
2022-10-06T06:05:01.150Z,16.70
2022-10-06T06:06:01.076Z,16.80
2022-10-06T06:07:00.967Z,19.60
2022-10-06T06:08:00.877Z,23.20
2022-10-06T06:09:00.779Z,22.00
2022-10-06T06:10:00.698Z,18.50
2022-10-06T06:11:00.588Z,21.30
2022-10-06T06:12:00.535Z,17.70
2022-10-06T06:13:00.389Z,13.40
2022-10-06T06:14:00.304Z,17.70
2022-10-06T06:15:00.210Z,17.50
2022-10-06T06:16:00.099Z,14.90
2022-10-06T06:17:00.106Z,14.50
2022-10-06T06:17:59.901Z,13.40
2022-10-06T06:18:59.800Z,22.40
2022-10-06T06:19:59.701Z,17.50
2022-10-06T06:20:59.611Z,18.20
2022-10-06T06:21:59.502Z,18.30
2022-10-06T06:22:59.393Z,16.50
2022-10-06T06:23:59.302Z,19.30
2022-10-06T06:24:59.200Z,16.20
2022-10-06T06:26:02.230Z,12.60
2022-10-06T06:26:59.003Z,15.20
2022-10-06T06:27:58.951Z,14.10
2022-10-06T06:28:58.803Z,12.30
2022-10-06T06:29:58.712Z,12.50
2022-10-06T06:30:58.657Z,16.10
2022-10-06T06:31:58.511Z,14.30
2022-10-06T06:32:58.413Z,15.70
2022-10-06T06:33:58.323Z,14.00
2022-10-06T06:34:58.216Z,18.30
2022-10-06T06:35:58.134Z,16.30
2022-10-06T06:37:01.207Z,19.30
2022-10-06T06:37:58.927Z,22.70
2022-10-06T06:38:57.827Z,19.00
2022-10-06T06:39:57.726Z,16.50
2022-10-06T06:40:57.636Z,16.10
2022-10-06T06:41:57.536Z,16.00
2022-10-06T06:42:57.435Z,17.70
2022-10-06T06:43:57.349Z,17.50
2022-10-06T06:44:57.238Z,17.60
2022-10-06T06:45:57.209Z,16.50
2022-10-06T06:46:57.052Z,21.30
2022-10-06T06:47:56.956Z,19.90
2022-10-06T06:48:56.859Z,19.40
2022-10-06T06:49:56.760Z,17.70
2022-10-06T06:50:56.679Z,14.50
2022-10-06T06:51:56.568Z,11.90
2022-10-06T06:52:56.470Z,17.70
2022-10-06T06:53:56.372Z,13.50
2022-10-06T06:54:56.282Z,14.20
2022-10-06T06:55:56.192Z,15.60
2022-10-06T06:56:56.082Z,14.80
2022-10-06T06:57:55.981Z,13.00
2022-10-06T06:58:55.881Z,14.70
2022-10-06T06:59:55.782Z,15.60
2022-10-06T07:00:55.752Z,18.50
2022-10-06T07:01:55.614Z,16.80
2022-10-06T07:02:55.483Z,14.90
2022-10-06T07:03:58.034Z,16.10
2022-10-06T07:04:55.293Z,17.60
2022-10-06T07:05:55.194Z,16.70
2022-10-06T07:06:55.093Z,17.10
2022-10-06T07:07:55.005Z,13.60
2022-10-06T07:08:54.895Z,14.00
2022-10-06T07:09:54.795Z,15.10
2022-10-06T07:10:54.723Z,15.40
2022-10-06T07:11:54.615Z,15.10
2022-10-06T07:12:54.523Z,13.60
2022-10-06T07:13:54.416Z,17.00
2022-10-06T07:14:54.333Z,12.50
2022-10-06T07:15:54.277Z,12.60
2022-10-06T07:16:54.136Z,15.60
2022-10-06T07:17:54.037Z,12.40
2022-10-06T07:18:53.939Z,15.70
2022-10-06T07:19:53.845Z,15.40
2022-10-06T07:20:53.752Z,14.20
2022-10-06T07:21:53.630Z,14.80
2022-10-06T07:22:53.530Z,13.80
2022-10-06T07:23:53.438Z,15.90
2022-10-06T07:24:53.329Z,14.60
2022-10-06T07:25:53.249Z,15.10
2022-10-06T07:26:53.130Z,13.10
2022-10-06T07:27:53.028Z,14.10
2022-10-06T07:28:52.937Z,15.70
2022-10-06T07:29:53.020Z,14.50
2022-10-06T07:30:52.731Z,18.80
2022-10-06T07:31:52.632Z,16.30
2022-10-06T07:32:52.518Z,17.40
2022-10-06T07:33:52.412Z,20.90
2022-10-06T07:34:52.538Z,20.10
2022-10-06T07:35:52.212Z,16.70
2022-10-06T07:36:52.224Z,17.10
2022-10-06T07:37:52.023Z,14.60
2022-10-06T07:38:51.925Z,17.10
2022-10-06T07:39:51.814Z,13.90
2022-10-06T07:41:14.667Z,16.50
2022-10-06T07:41:52.634Z,15.00
2022-10-06T07:42:51.535Z,15.10
2022-10-06T07:43:51.426Z,14.30
2022-10-06T07:44:51.620Z,19.40
2022-10-06T07:45:51.283Z,13.50
2022-10-06T07:46:51.124Z,14.00
2022-10-06T07:47:51.038Z,17.20
2022-10-06T07:48:50.917Z,18.50
2022-10-06T07:49:50.809Z,15.40
2022-10-06T07:50:50.710Z,16.20
2022-10-06T07:51:50.597Z,17.50
2022-10-06T07:52:50.517Z,14.60
2022-10-06T07:53:50.396Z,15.60
2022-10-06T07:54:50.368Z,17.80
2022-10-06T07:55:50.189Z,18.80
2022-10-06T07:56:50.086Z,16.20
2022-10-06T07:57:49.989Z,16.60
2022-10-06T07:58:49.870Z,19.30
2022-10-06T07:59:49.759Z,18.50
2022-10-06T08:00:49.657Z,16.90
2022-10-06T08:01:49.630Z,14.00
2022-10-06T08:02:49.532Z,17.50
2022-10-06T08:03:49.333Z,21.40
2022-10-06T08:04:49.222Z,14.40
2022-10-06T08:05:49.112Z,11.60
2022-10-06T08:06:49.013Z,12.20
2022-10-06T08:07:48.925Z,18.30
2022-10-06T08:08:52.593Z,17.50
2022-10-06T08:09:48.685Z,16.50
2022-10-06T08:10:48.583Z,17.00
2022-10-06T08:11:48.474Z,15.60
2022-10-06T08:12:48.376Z,14.70
2022-10-06T08:13:48.278Z,16.60
2022-10-06T08:14:48.154Z,17.10
2022-10-06T08:15:48.059Z,18.30
2022-10-06T08:16:47.946Z,16.60
2022-10-06T08:17:47.834Z,13.60
2022-10-06T08:18:47.729Z,14.10
2022-10-06T08:19:47.595Z,13.80
2022-10-06T08:20:47.495Z,11.00
2022-10-06T08:21:47.376Z,11.70
2022-10-06T08:22:47.277Z,10.10
2022-10-06T08:23:47.168Z,12.80
2022-10-06T08:25:04.709Z,14.90
2022-10-06T08:25:47.942Z,11.90
2022-10-06T08:26:46.842Z,11.40
2022-10-06T08:27:51.317Z,16.30
2022-10-06T08:28:47.618Z,12.60
2022-10-06T08:29:46.498Z,14.40
2022-10-06T08:30:46.399Z,12.20
2022-10-06T08:31:46.418Z,14.40
2022-10-06T08:32:46.170Z,12.60
2022-10-06T08:33:46.091Z,11.50
2022-10-06T08:34:45.950Z,9.00
2022-10-06T08:35:45.819Z,7.60
2022-10-06T08:36:57.005Z,13.60
2022-10-06T08:37:46.593Z,9.90
2022-10-06T08:38:45.483Z,9.50
2022-10-06T08:39:45.380Z,8.80
2022-10-06T08:40:45.262Z,11.80
2022-10-06T08:41:45.143Z,12.10
2022-10-06T08:42:45.034Z,9.90
2022-10-06T08:43:44.915Z,9.30
2022-10-06T08:44:44.812Z,7.80
2022-10-06T08:45:44.747Z,4.70
2022-10-06T08:46:44.574Z,6.20
2022-10-06T08:47:44.484Z,5.80
2022-10-06T08:48:44.355Z,7.80
2022-10-06T08:49:44.245Z,6.40
2022-10-06T08:50:44.135Z,8.00
2022-10-06T08:51:44.016Z,9.50
2022-10-06T08:52:43.895Z,5.00
2022-10-06T08:53:43.784Z,5.50
2022-10-06T08:54:43.689Z,5.30
2022-10-06T08:55:43.556Z,6.50
2022-10-06T08:56:43.444Z,6.30
2022-10-06T08:57:43.326Z,6.30
2022-10-06T08:58:43.219Z,5.30
2022-10-06T08:59:43.098Z,6.50
2022-10-06T09:00:42.998Z,5.10
2022-10-06T09:01:42.998Z,8.10
2022-10-06T09:02:42.824Z,8.80
2022-10-06T09:03:42.637Z,5.60
2022-10-06T09:04:42.522Z,4.10
2022-10-06T09:05:42.410Z,6.80
2022-10-06T09:06:42.291Z,3.80
2022-10-06T09:07:42.163Z,7.60
2022-10-06T09:08:42.041Z,5.20
2022-10-06T09:09:41.923Z,3.90
2022-10-06T09:10:41.811Z,5.50
2022-10-06T09:11:41.853Z,3.80
2022-10-06T09:12:41.553Z,4.70
2022-10-06T09:13:41.434Z,2.70
2022-10-06T09:14:41.320Z,3.40
2022-10-06T09:15:41.270Z,4.80
2022-10-06T09:16:41.075Z,3.50
2022-10-06T09:17:40.954Z,4.50
2022-10-06T09:19:06.801Z,2.70
2022-10-06T09:19:41.714Z,6.00
2022-10-06T09:20:40.614Z,3.00
2022-10-06T09:21:40.491Z,3.50
2022-10-06T09:22:40.366Z,5.80
2022-10-06T09:23:40.236Z,6.10
2022-10-06T09:24:44.789Z,5.10
2022-10-06T09:25:40.997Z,5.10
2022-10-06T09:26:40.667Z,3.50
2022-10-06T09:27:39.747Z,4.50
2022-10-06T09:28:39.736Z,3.30
2022-10-06T09:29:39.500Z,4.40
2022-10-06T09:30:39.394Z,3.60
2022-10-06T09:31:39.324Z,5.90
2022-10-06T09:32:39.119Z,3.50
2022-10-06T09:33:38.989Z,3.10
2022-10-06T09:34:38.880Z,3.90
2022-10-06T09:35:38.750Z,2.70
2022-10-06T09:36:38.641Z,5.00
2022-10-06T09:37:38.502Z,2.30
2022-10-06T09:38:38.392Z,3.10
2022-10-06T09:39:38.268Z,3.00
2022-10-06T09:40:38.151Z,3.40
2022-10-06T09:41:38.043Z,3.30
2022-10-06T09:42:37.925Z,2.80
2022-10-06T09:43:37.807Z,6.40
2022-10-06T09:44:37.673Z,3.50
2022-10-06T09:45:37.545Z,2.40
2022-10-06T09:46:37.443Z,3.00
2022-10-06T09:47:37.294Z,2.30
2022-10-06T09:48:37.175Z,2.50
2022-10-06T09:49:37.045Z,3.70
2022-10-06T09:50:36.932Z,6.60
2022-10-06T09:51:36.795Z,4.10
2022-10-06T09:52:36.695Z,3.20
2022-10-06T09:53:37.767Z,2.30
2022-10-06T09:54:36.436Z,1.50
2022-10-06T09:55:36.307Z,2.10
2022-10-06T09:56:36.195Z,3.30
2022-10-06T09:57:36.081Z,2.60
2022-10-06T09:58:35.957Z,4.60
2022-10-06T09:59:40.019Z,3.50
2022-10-06T10:00:35.898Z,5.00
2022-10-06T10:01:35.599Z,3.10
2022-10-06T10:02:35.568Z,4.90
2022-10-06T10:03:35.357Z,2.90
2022-10-06T10:04:35.237Z,3.70
2022-10-06T10:05:35.109Z,4.40
2022-10-06T10:06:34.989Z,3.80
2022-10-06T10:07:34.860Z,2.30
2022-10-06T10:09:34.621Z,1.80
2022-10-06T10:10:34.499Z,4.30
2022-10-06T10:11:34.362Z,2.70
2022-10-06T10:12:34.240Z,3.50
2022-10-06T10:13:34.113Z,4.30
2022-10-06T10:14:33.984Z,2.10
2022-10-06T10:15:33.866Z,4.80
2022-10-06T10:16:33.787Z,4.10
2022-10-06T10:17:33.614Z,2.10
2022-10-06T10:18:33.527Z,1.80
2022-10-06T10:19:33.363Z,5.60
2022-10-06T10:20:33.235Z,3.00
2022-10-06T10:21:33.106Z,2.40
2022-10-06T10:22:32.976Z,1.50
2022-10-06T10:23:32.856Z,6.00
2022-10-06T10:24:32.740Z,3.30
2022-10-06T10:25:32.586Z,1.70
2022-10-06T10:26:32.457Z,2.40
2022-10-06T10:27:32.328Z,4.80
2022-10-06T10:28:32.227Z,2.70
2022-10-06T10:29:33.297Z,5.80
2022-10-06T10:30:31.926Z,2.40
2022-10-06T10:31:31.872Z,6.10
2022-10-06T10:32:31.670Z,2.70
2022-10-06T10:33:31.536Z,5.30
2022-10-06T10:34:31.407Z,2.10
2022-10-06T10:35:31.261Z,3.60
2022-10-06T10:36:31.131Z,1.70
2022-10-06T10:37:31.013Z,1.20
2022-10-06T10:38:30.869Z,4.10
2022-10-06T10:39:30.741Z,3.50
2022-10-06T10:40:30.598Z,3.70
2022-10-06T10:41:30.463Z,4.00
2022-10-06T10:42:30.341Z,4.40
2022-10-06T10:43:30.194Z,2.40
2022-10-06T10:44:30.063Z,3.90
2022-10-06T10:45:29.934Z,4.20
2022-10-06T10:46:29.863Z,3.40
2022-10-06T10:47:29.667Z,2.70
2022-10-06T10:48:29.533Z,2.50
2022-10-06T10:49:29.385Z,2.00
2022-10-06T10:50:29.263Z,2.50
2022-10-06T10:51:29.119Z,3.50
2022-10-06T10:52:28.986Z,2.90
2022-10-06T10:53:28.856Z,2.20
2022-10-06T10:54:28.726Z,3.90
2022-10-06T10:55:28.609Z,2.70
2022-10-06T10:56:28.459Z,2.10
2022-10-06T10:57:28.314Z,2.20
2022-10-06T10:58:28.179Z,1.00
2022-10-06T10:59:28.038Z,2.40
2022-10-06T11:00:27.957Z,1.10
2022-10-06T11:01:27.769Z,4.20
2022-10-06T11:02:27.626Z,2.70
2022-10-06T11:03:27.492Z,1.30
2022-10-06T11:04:27.350Z,2.40
2022-10-06T11:05:28.972Z,2.70
2022-10-06T11:06:27.081Z,2.50
2022-10-06T11:07:26.958Z,2.00
2022-10-06T11:08:26.811Z,1.80
2022-10-06T11:09:26.687Z,2.60
2022-10-06T11:10:26.552Z,1.80
2022-10-06T11:11:26.412Z,2.10
2022-10-06T11:12:26.263Z,2.80
2022-10-06T11:13:26.133Z,2.90
2022-10-06T11:14:25.983Z,3.50
2022-10-06T11:15:25.864Z,1.30
2022-10-06T11:16:25.760Z,1.60
2022-10-06T11:17:25.584Z,1.80
2022-10-06T11:18:25.444Z,1.30
2022-10-06T11:19:25.306Z,3.70
2022-10-06T11:20:25.346Z,3.00
2022-10-06T11:21:25.034Z,2.80
2022-10-06T11:22:24.896Z,2.50
2022-10-06T11:23:24.755Z,3.70
2022-10-06T11:24:24.617Z,3.00
2022-10-06T11:25:24.478Z,1.80
2022-10-06T11:26:24.394Z,3.30
2022-10-06T11:27:24.208Z,2.40
2022-10-06T11:28:24.122Z,4.50
2022-10-06T11:29:23.940Z,1.90
2022-10-06T11:30:23.801Z,4.70
2022-10-06T11:31:23.730Z,2.50
2022-10-06T11:32:23.530Z,2.40
2022-10-06T11:33:23.400Z,3.40
2022-10-06T11:34:23.260Z,5.60
2022-10-06T11:35:23.135Z,2.10
2022-10-06T11:36:23.001Z,2.40
2022-10-06T11:37:22.862Z,2.00
2022-10-06T11:38:22.726Z,3.40
2022-10-06T11:39:22.600Z,2.20
2022-10-06T11:40:22.486Z,2.60
2022-10-06T11:41:22.333Z,2.90
2022-10-06T11:42:22.219Z,3.80
2022-10-06T11:43:22.054Z,3.20
2022-10-06T11:44:21.921Z,4.20
2022-10-06T11:45:21.784Z,6.00
2022-10-06T11:46:21.709Z,1.10
2022-10-06T11:47:34.365Z,2.50
2022-10-06T11:48:22.422Z,2.40
2022-10-06T11:49:21.265Z,3.10
2022-10-06T11:50:21.126Z,2.80
2022-10-06T11:51:20.996Z,2.30
2022-10-06T11:52:20.876Z,3.30
2022-10-06T11:53:20.729Z,2.00
2022-10-06T11:54:20.587Z,3.00
2022-10-06T11:55:20.465Z,3.00
2022-10-06T11:56:20.339Z,3.80
2022-10-06T11:57:20.196Z,3.80
2022-10-06T11:58:41.867Z,3.60
2022-10-06T11:59:20.910Z,4.30
2022-10-06T12:00:19.770Z,3.30
2022-10-06T12:01:19.649Z,2.50
2022-10-06T12:02:19.579Z,1.90
2022-10-06T12:03:19.435Z,2.50
2022-10-06T12:04:24.111Z,0.90
2022-10-06T12:05:55.231Z,2.40
2022-10-06T12:06:20.095Z,3.60
2022-10-06T12:07:18.853Z,5.60
2022-10-06T12:08:18.701Z,1.90
2022-10-06T12:09:18.572Z,4.80
2022-10-06T12:10:18.432Z,4.20
2022-10-06T12:11:18.294Z,3.60
2022-10-06T12:12:18.160Z,2.30
2022-10-06T12:13:51.348Z,2.00
2022-10-06T12:17:19.427Z,1.70
2022-10-06T12:18:17.367Z,3.00
2022-10-06T12:19:17.225Z,1.60
2022-10-06T12:20:17.087Z,1.80
2022-10-06T12:21:16.964Z,1.90
2022-10-06T12:22:16.874Z,1.80
2022-10-06T12:23:16.806Z,2.30
2022-10-06T12:24:16.558Z,3.90
2022-10-06T12:25:16.418Z,1.90
2022-10-06T12:26:16.338Z,2.20
2022-10-06T12:27:16.139Z,2.70
2022-10-06T12:28:16.083Z,2.80
2022-10-06T12:29:15.872Z,2.70
2022-10-06T12:30:15.740Z,3.10
2022-10-06T12:31:18.208Z,1.20
2022-10-06T12:32:15.471Z,3.40
2022-10-06T12:33:15.351Z,2.50
2022-10-06T12:34:15.209Z,3.60
2022-10-06T12:35:15.081Z,1.30
2022-10-06T12:36:14.942Z,1.90
2022-10-06T12:37:14.803Z,4.80
2022-10-06T12:38:14.701Z,3.70
2022-10-06T12:39:14.534Z,3.40
2022-10-06T12:40:14.403Z,2.80
2022-10-06T12:41:14.263Z,4.80
2022-10-06T12:42:14.127Z,1.50
2022-10-06T12:43:14.017Z,2.60
2022-10-06T12:44:13.859Z,2.10
2022-10-06T12:45:13.732Z,3.60
2022-10-06T12:46:13.615Z,3.20
2022-10-06T12:47:13.459Z,3.60
2022-10-06T12:48:13.324Z,3.70
2022-10-06T12:49:13.206Z,2.10
2022-10-06T12:50:13.057Z,3.20
2022-10-06T12:51:12.928Z,2.60
2022-10-06T12:52:12.788Z,2.30
2022-10-06T12:53:12.658Z,1.60
2022-10-06T12:54:12.532Z,2.70
2022-10-06T12:55:12.397Z,3.20
2022-10-06T12:56:12.257Z,3.20
2022-10-06T12:57:12.127Z,2.70
2022-10-06T12:58:11.980Z,3.80
2022-10-06T12:59:11.870Z,2.50
2022-10-06T13:00:11.722Z,3.00
2022-10-06T13:01:11.652Z,1.90
2022-10-06T13:02:11.508Z,2.50
2022-10-06T13:03:11.321Z,2.20
2022-10-06T13:04:11.182Z,3.70